Time;durP1;ratioP1;P1;durP2;ratioP2;P2;SDS_P1;SDS_P2;PMS_P1;PMS_P2;Temp;Humidity;BMP_temperature;BMP_pressure;BME280_temperature;BME280_humidity;BME280_pressure;Samples;Min_cycle;Max_cycle;Signal;HPM_P1;HPM_P2
2022/11/03 00:01:05;;;;;;;11.88;6.00;;;;;;;;;;5036121;28;20123;-80
2022/11/03 00:03:32;;;;;;;16.92;6.13;;;;;;;;;;5054576;28;20103;-80
2022/11/03 00:06:06;;;;;;;10.13;5.57;;;;;;;;;;5037144;28;20048;-80
2022/11/03 00:08:37;;;;;;;13.10;5.85;;;;;;;;;;5054291;28;20044;-80
2022/11/03 00:11:09;;;;;;;18.95;6.65;;;;;;;;;;5036649;28;20136;-80
2022/11/03 00:13:37;;;;;;;14.27;5.82;;;;;;;;;;5036389;28;20514;-80
2022/11/03 00:16:05;;;;;;;14.00;5.75;;;;;;;;;;5036566;28;20094;-80
2022/11/03 00:18:34;;;;;;;13.23;5.70;;;;;;;;;;5036433;28;20057;-80
2022/11/03 00:21:02;;;;;;;11.73;5.45;;;;;;;;;;5036104;28;20051;-80
2022/11/03 00:23:31;;;;;;;13.77;5.78;;;;;;;;;;5036397;28;20479;-81
2022/11/03 00:26:03;;;;;;;12.93;5.20;;;;;;;;;;5036577;28;20076;-80
2022/11/03 00:28:31;;;;;;;21.77;6.50;;;;;;;;;;5036075;28;20057;-80
2022/11/03 00:31:00;;;;;;;18.70;6.30;;;;;;;;;;5036518;28;20103;-80
2022/11/03 00:33:33;;;;;;;15.43;5.78;;;;;;;;;;5036200;28;20553;-80
2022/11/03 00:36:01;;;;;;;13.65;5.38;;;;;;;;;;5036391;28;20060;-80
2022/11/03 00:38:28;;;;;;;11.00;5.53;;;;;;;;;;5035762;28;20136;-81
2022/11/03 00:40:57;;;;;;;13.40;5.10;;;;;;;;;;5036160;28;20128;-81
2022/11/03 00:43:25;;;;;;;12.05;5.13;;;;;;;;;;5035755;28;20136;-80
2022/11/03 00:45:52;;;;;;;17.90;5.65;;;;;;;;;;5035849;28;20059;-80
2022/11/03 00:48:29;;;;;;;14.77;5.50;;;;;;;;;;5035882;28;20132;-80
2022/11/03 00:51:15;;;;;;;16.73;5.68;;;;;;;;;;5035783;28;20099;-80
2022/11/03 00:53:43;;;;;;;15.43;5.35;;;;;;;;;;5035311;28;20057;-80
2022/11/03 00:56:11;;;;;;;8.45;5.40;;;;;;;;;;5036539;28;20391;-80
2022/11/03 00:58:38;;;;;;;11.85;5.25;;;;;;;;;;5038405;28;20123;-80
2022/11/03 01:01:07;;;;;;;14.90;5.60;;;;;;;;;;5036906;28;20128;-81
2022/11/03 01:03:35;;;;;;;12.57;4.95;;;;;;;;;;5036510;28;20080;-80
2022/11/03 01:08:50;;;;;;;17.23;5.63;;;;;;;;;;5055532;28;20099;-82
2022/11/03 01:14:05;;;;;;;15.50;5.72;;;;;;;;;;5058406;28;20140;-82
2022/11/03 01:16:32;;;;;;;16.33;5.50;;;;;;;;;;5059471;28;20151;-81
2022/11/03 01:19:00;;;;;;;8.13;4.57;;;;;;;;;;5041266;28;20056;-81
2022/11/03 01:21:28;;;;;;;12.88;5.05;;;;;;;;;;5059381;28;20486;-82
2022/11/03 01:23:55;;;;;;;10.85;5.20;;;;;;;;;;5041145;28;20059;-82
2022/11/03 01:26:22;;;;;;;11.43;5.25;;;;;;;;;;5041523;28;20146;-81
2022/11/03 01:28:52;;;;;;;9.15;5.10;;;;;;;;;;5041431;28;20080;-81
2022/11/03 01:31:20;;;;;;;8.80;4.43;;;;;;;;;;5041796;28;20152;-82
2022/11/03 01:33:49;;;;;;;8.40;4.60;;;;;;;;;;5040847;28;20083;-82
2022/11/03 01:36:16;;;;;;;8.95;4.97;;;;;;;;;;5041392;28;20141;-81
2022/11/03 01:38:44;;;;;;;10.02;4.82;;;;;;;;;;5040859;28;20390;-81
2022/11/03 01:41:16;;;;;;;16.27;4.97;;;;;;;;;;5040859;28;20132;-82
2022/11/03 01:43:44;;;;;;;8.27;4.57;;;;;;;;;;5041212;28;20136;-82
2022/11/03 01:46:11;;;;;;;10.35;4.32;;;;;;;;;;5041361;28;20081;-82
2022/11/03 01:48:42;;;;;;;15.13;5.10;;;;;;;;;;5059148;28;20098;-81
2022/11/03 01:51:11;;;;;;;11.98;5.03;;;;;;;;;;5041514;28;20045;-82
2022/11/03 01:53:41;;;;;;;10.75;4.82;;;;;;;;;;5041996;28;20570;-82
2022/11/03 01:56:10;;;;;;;13.52;4.60;;;;;;;;;;5041466;28;20482;-82
2022/11/03 01:58:39;;;;;;;12.55;5.03;;;;;;;;;;5041903;28;20085;-81
2022/11/03 02:01:06;;;;;;;10.60;4.45;;;;;;;;;;5059257;28;20091;-82
2022/11/03 02:03:37;;;;;;;9.48;4.13;;;;;;;;;;5042224;28;20045;-81
2022/11/03 02:06:05;;;;;;;6.97;4.18;;;;;;;;;;5038884;28;20076;-81
2022/11/03 02:08:46;;;;;;;7.38;3.92;;;;;;;;;;5057311;28;20127;-81
2022/11/03 02:14:00;;;;;;;12.32;4.30;;;;;;;;;;5056890;28;20071;-81
2022/11/03 02:16:29;;;;;;;12.93;4.68;;;;;;;;;;5039693;28;20147;-81
2022/11/03 02:19:00;;;;;;;10.23;4.40;;;;;;;;;;5037934;28;20571;-81
2022/11/03 02:21:29;;;;;;;9.55;4.85;;;;;;;;;;5055668;28;20497;-81
2022/11/03 02:24:09;;;;;;;10.88;4.90;;;;;;;;;;5037528;28;20135;-81
2022/11/03 02:26:37;;;;;;;12.45;4.88;;;;;;;;;;5037710;28;20053;-81
2022/11/03 02:29:04;;;;;;;11.65;5.03;;;;;;;;;;5037912;28;20127;-81
2022/11/03 02:31:50;;;;;;;11.77;5.60;;;;;;;;;;5037740;28;20053;-81
2022/11/03 02:34:23;;;;;;;11.32;5.18;;;;;;;;;;5037720;28;20045;-81
2022/11/03 02:36:54;;;;;;;15.30;5.55;;;;;;;;;;5038147;28;20425;-81
2022/11/03 02:39:21;;;;;;;15.73;5.18;;;;;;;;;;5037599;28;20426;-81
2022/11/03 02:41:49;;;;;;;8.50;5.32;;;;;;;;;;5037615;28;20080;-81
2022/11/03 02:44:18;;;;;;;8.23;4.38;;;;;;;;;;5038294;28;20053;-81
2022/11/03 02:46:48;;;;;;;19.20;6.05;;;;;;;;;;5038189;28;20128;-81
2022/11/03 02:49:15;;;;;;;12.70;5.10;;;;;;;;;;5037726;28;20040;-82
2022/11/03 02:51:42;;;;;;;10.98;4.53;;;;;;;;;;5038070;28;20064;-82
2022/11/03 02:54:20;;;;;;;11.40;5.45;;;;;;;;;;5038250;28;20053;-81
2022/11/03 02:56:55;;;;;;;15.88;5.35;;;;;;;;;;5055540;28;20080;-81
2022/11/03 02:59:25;;;;;;;13.00;5.18;;;;;;;;;;5037739;28;20063;-81
2022/11/03 03:02:05;;;;;;;13.73;5.05;;;;;;;;;;5037646;28;20446;-81
2022/11/03 03:04:36;;;;;;;12.93;4.85;;;;;;;;;;5055415;28;20110;-81
2022/11/03 03:07:08;;;;;;;15.18;5.40;;;;;;;;;;5037783;28;20482;-81
2022/11/03 03:09:40;;;;;;;10.25;5.03;;;;;;;;;;5037208;28;20136;-81
2022/11/03 03:12:08;;;;;;;19.80;5.13;;;;;;;;;;5038028;28;20059;-82
2022/11/03 03:14:37;;;;;;;9.65;4.18;;;;;;;;;;5037541;28;20494;-81
2022/11/03 03:17:06;;;;;;;7.50;4.25;;;;;;;;;;5054870;28;20139;-81
2022/11/03 03:19:57;;;;;;;19.13;5.18;;;;;;;;;;5037644;28;20106;-81
2022/11/03 03:22:28;;;;;;;8.02;4.82;;;;;;;;;;5010475;28;20059;-81
2022/11/03 03:25:16;;;;;;;11.85;5.53;;;;;;;;;;5037810;28;20053;-81
2022/11/03 03:27:47;;;;;;;13.93;5.13;;;;;;;;;;5037426;28;20095;-81
2022/11/03 03:30:15;;;;;;;11.57;5.47;;;;;;;;;;5037571;28;20139;-81
2022/11/03 03:32:49;;;;;;;9.52;5.13;;;;;;;;;;5037295;28;20087;-82
2022/11/03 03:35:19;;;;;;;9.77;4.43;;;;;;;;;;5040262;28;20514;-81
2022/11/03 03:37:48;;;;;;;8.90;4.40;;;;;;;;;;5054389;28;20049;-81
2022/11/03 03:40:18;;;;;;;11.30;5.10;;;;;;;;;;5054272;28;20045;-81
2022/11/03 03:42:47;;;;;;;22.42;5.57;;;;;;;;;;5036508;28;20137;-81
2022/11/03 03:45:14;;;;;;;14.45;5.47;;;;;;;;;;5054307;28;20128;-81
2022/11/03 03:47:43;;;;;;;9.48;5.30;;;;;;;;;;5036527;28;20110;-81
2022/11/03 03:50:11;;;;;;;17.42;6.28;;;;;;;;;;5036382;28;20132;-81
2022/11/03 03:52:38;;;;;;;15.65;5.28;;;;;;;;;;5036438;28;20133;-81
2022/11/03 03:55:15;;;;;;;16.15;6.03;;;;;;;;;;5036381;28;20049;-81
2022/11/03 03:57:43;;;;;;;14.48;6.00;;;;;;;;;;5036370;28;20057;-81
2022/11/03 04:00:12;;;;;;;16.30;6.00;;;;;;;;;;5036415;28;20137;-81
2022/11/03 04:02:41;;;;;;;16.25;6.75;;;;;;;;;;5036239;28;20063;-81
2022/11/03 04:05:09;;;;;;;37.33;19.33;;;;;;;;;;5036189;28;20127;-81
2022/11/03 04:07:48;;;;;;;45.75;21.92;;;;;;;;;;5036070;28;20569;-81
2022/11/03 04:10:17;;;;;;;21.98;10.15;;;;;;;;;;5035868;28;20084;-81
2022/11/03 04:23:52;;;;;;;12.63;6.18;;;;;;;;;;5054655;28;20065;-82
2022/11/03 04:26:23;;;;;;;21.35;6.82;;;;;;;;;;5037252;28;20049;-81
2022/11/03 04:28:52;;;;;;;18.98;5.60;;;;;;;;;;5036990;28;20053;-82
2022/11/03 04:31:20;;;;;;;15.77;5.88;;;;;;;;;;5037499;28;20144;-82
2022/11/03 04:33:48;;;;;;;17.05;5.57;;;;;;;;;;5055146;28;20072;-82
2022/11/03 04:36:20;;;;;;;16.67;6.20;;;;;;;;;;5037513;28;20487;-81
2022/11/03 04:38:47;;;;;;;13.85;5.05;;;;;;;;;;5055891;28;20084;-82
2022/11/03 04:41:19;;;;;;;16.80;5.38;;;;;;;;;;5038350;28;20136;-82
2022/11/03 04:43:47;;;;;;;12.77;5.18;;;;;;;;;;5038867;28;20455;-82
2022/11/03 04:46:23;;;;;;;18.38;5.72;;;;;;;;;;5038614;28;20105;-82
2022/11/03 04:48:52;;;;;;;15.07;5.38;;;;;;;;;;5040243;28;20045;-82
2022/11/03 04:51:21;;;;;;;17.85;5.78;;;;;;;;;;5043368;28;20041;-81
2022/11/03 04:53:54;;;;;;;9.48;4.72;;;;;;;;;;5060800;28;20103;-82
2022/11/03 04:56:25;;;;;;;11.68;5.13;;;;;;;;;;5041437;28;20055;-81
2022/11/03 04:58:52;;;;;;;8.88;4.65;;;;;;;;;;5041456;28;20149;-82
2022/11/03 05:01:21;;;;;;;8.88;4.70;;;;;;;;;;5059087;28;20045;-82
2022/11/03 05:03:52;;;;;;;13.30;4.57;;;;;;;;;;5041927;28;20128;-82
2022/11/03 05:06:21;;;;;;;20.58;5.90;;;;;;;;;;5041654;28;20502;-82
2022/11/03 05:08:54;;;;;;;17.80;5.43;;;;;;;;;;5041842;28;20127;-82
2022/11/03 05:11:28;;;;;;;8.15;4.70;;;;;;;;;;5041602;28;20124;-82
2022/11/03 05:13:55;;;;;;;;;;;;;;;;;;5061146;23;20145;-84
2022/11/03 05:16:23;;;;;;;10.45;5.60;;;;;;;;;;5042866;28;20019;-84
2022/11/03 05:18:50;;;;;;;15.98;6.35;;;;;;;;;;5042725;28;20051;-84
2022/11/03 05:21:18;;;;;;;34.25;13.93;;;;;;;;;;5044070;28;20049;-85
2022/11/03 05:23:47;;;;;;;21.25;7.38;;;;;;;;;;5061983;28;20076;-85
2022/11/03 05:26:20;;;;;;;11.45;6.28;;;;;;;;;;5045701;28;20495;-85
2022/11/03 05:28:52;;;;;;;57.65;32.05;;;;;;;;;;5045404;28;20053;-85
2022/11/03 05:31:20;;;;;;;17.80;7.53;;;;;;;;;;5063222;28;20049;-85
2022/11/03 05:33:48;;;;;;;13.60;6.95;;;;;;;;;;5064014;28;20120;-85
2022/11/03 05:36:21;;;;;;;14.50;5.70;;;;;;;;;;5064555;28;20083;-84
2022/11/03 05:38:49;;;;;;;22.45;13.90;;;;;;;;;;5046504;28;20114;-84
2022/11/03 05:41:23;;;;;;;23.27;10.02;;;;;;;;;;5064758;28;20059;-84
2022/11/03 05:43:55;;;;;;;23.63;9.85;;;;;;;;;;5030577;28;20076;-85
2022/11/03 05:46:23;;;;;;;18.10;8.85;;;;;;;;;;5047534;28;20063;-85
2022/11/03 05:48:51;;;;;;;15.70;6.55;;;;;;;;;;5047589;28;20083;-85
2022/11/03 05:51:23;;;;;;;18.80;6.80;;;;;;;;;;5064405;28;20048;-85
2022/11/03 05:53:53;;;;;;;16.55;6.22;;;;;;;;;;5063419;28;20495;-84
2022/11/03 05:56:23;;;;;;;15.55;6.38;;;;;;;;;;5045985;28;20414;-85
2022/11/03 05:58:53;;;;;;;21.73;7.43;;;;;;;;;;5066609;28;20478;-85
2022/11/03 06:01:38;;;;;;;20.17;7.55;;;;;;;;;;5048654;28;20143;-85
2022/11/03 06:04:18;;;;;;;23.25;9.85;;;;;;;;;;5048104;28;20434;-84
2022/11/03 06:06:51;;;;;;;78.82;36.75;;;;;;;;;;5065712;28;20053;-84
2022/11/03 06:09:21;;;;;;;32.00;13.70;;;;;;;;;;5066153;28;20079;-84
2022/11/03 06:11:49;;;;;;;60.63;31.48;;;;;;;;;;5065384;28;20052;-85
2022/11/03 06:14:23;;;;;;;78.47;36.15;;;;;;;;;;5065459;28;20049;-84
2022/11/03 06:16:51;;;;;;;60.80;31.58;;;;;;;;;;5064217;28;20057;-84
2022/11/03 06:19:23;;;;;;;50.05;26.85;;;;;;;;;;5047420;28;20125;-85
2022/11/03 06:21:51;;;;;;;40.08;19.80;;;;;;;;;;5064976;28;20049;-84
2022/11/03 06:24:20;;;;;;;43.83;19.70;;;;;;;;;;5065043;28;20049;-84
2022/11/03 06:26:49;;;;;;;13.68;6.45;;;;;;;;;;5064201;28;20119;-85
2022/11/03 06:29:18;;;;;;;26.52;7.05;;;;;;;;;;5047031;28;20127;-84
2022/11/03 06:31:47;;;;;;;17.85;6.78;;;;;;;;;;5047131;28;20056;-84
2022/11/03 06:34:29;;;;;;;23.33;7.95;;;;;;;;;;5065538;28;20107;-84
2022/11/03 06:36:58;;;;;;;16.77;6.60;;;;;;;;;;5065057;28;20561;-84
2022/11/03 06:39:27;;;;;;;21.40;6.78;;;;;;;;;;5047297;28;20057;-85
2022/11/03 06:41:55;;;;;;;21.38;7.05;;;;;;;;;;5046418;28;20119;-85
2022/11/03 06:44:23;;;;;;;24.20;8.93;;;;;;;;;;5048218;28;20120;-85
2022/11/03 06:46:56;;;;;;;22.27;10.40;;;;;;;;;;5048617;28;20045;-85
2022/11/03 06:49:28;;;;;;;29.13;12.45;;;;;;;;;;5047837;28;20053;-85
2022/11/03 06:51:58;;;;;;;27.40;13.60;;;;;;;;;;5049190;28;20057;-85
2022/11/03 06:54:27;;;;;;;28.38;14.43;;;;;;;;;;5047341;28;20413;-85
2022/11/03 06:56:54;;;;;;;36.00;18.63;;;;;;;;;;5047051;28;20049;-85
2022/11/03 06:59:24;;;;;;;38.10;21.67;;;;;;;;;;5047219;28;20067;-84
2022/11/03 07:01:54;;;;;;;61.78;30.10;;;;;;;;;;5046892;28;20219;-84
2022/11/03 07:04:27;;;;;;;50.03;21.35;;;;;;;;;;5046745;28;20526;-85
2022/11/03 07:06:59;;;;;;;37.70;20.50;;;;;;;;;;5047122;28;20044;-85
2022/11/03 07:09:28;;;;;;;37.33;21.25;;;;;;;;;;5046689;28;20052;-85
2022/11/03 07:11:56;;;;;;;46.47;16.92;;;;;;;;;;5045881;28;20056;-85
2022/11/03 07:14:31;;;;;;;45.60;20.67;;;;;;;;;;5043736;28;20045;-84
2022/11/03 07:17:02;;;;;;;47.78;20.75;;;;;;;;;;5042310;28;20129;-86
2022/11/03 07:19:30;;;;;;;41.97;20.60;;;;;;;;;;5043416;28;20050;-85
2022/11/03 07:22:01;;;;;;;49.80;18.02;;;;;;;;;;5043105;28;20056;-84
2022/11/03 07:24:40;;;;;;;34.00;15.07;;;;;;;;;;5042571;28;20060;-85
2022/11/03 07:27:07;;;;;;;28.80;13.10;;;;;;;;;;5042814;28;20063;-85
2022/11/03 07:29:34;;;;;;;32.67;12.93;;;;;;;;;;5040660;28;20049;-85
2022/11/03 07:32:08;;;;;;;33.13;16.30;;;;;;;;;;5020298;28;20053;-85
2022/11/03 07:34:38;;;;;;;33.58;17.45;;;;;;;;;;5035028;28;20140;-85
2022/11/03 07:37:09;;;;;;;37.05;15.45;;;;;;;;;;5033506;28;20061;-84
2022/11/03 07:39:38;;;;;;;37.25;17.15;;;;;;;;;;5016808;28;20084;-84
2022/11/03 07:42:13;;;;;;;41.97;16.27;;;;;;;;;;5033083;28;20049;-84
2022/11/03 07:44:42;;;;;;;36.53;13.40;;;;;;;;;;5039624;28;20078;-84
2022/11/03 07:47:18;;;;;;;19.58;10.05;;;;;;;;;;5041203;28;20076;-84
2022/11/03 07:49:47;;;;;;;42.70;15.80;;;;;;;;;;5041052;28;20136;-84
2022/11/03 07:52:29;;;;;;;69.95;17.02;;;;;;;;;;5040089;28;20041;-84
2022/11/03 07:54:58;;;;;;;89.50;16.80;;;;;;;;;;5041983;28;20416;-83
2022/11/03 07:57:29;;;;;;;57.42;17.85;;;;;;;;;;5042319;28;20088;-85
2022/11/03 07:59:57;;;;;;;86.20;19.33;;;;;;;;;;5043169;28;20046;-85
2022/11/03 08:02:36;;;;;;;58.30;18.50;;;;;;;;;;5042694;28;20057;-85
2022/11/03 08:05:16;;;;;;;53.13;23.95;;;;;;;;;;5042918;28;20053;-85
2022/11/03 08:07:45;;;;;;;75.25;33.35;;;;;;;;;;5042437;28;20095;-84
2022/11/03 08:10:13;;;;;;;38.33;19.77;;;;;;;;;;5042680;28;20049;-85
2022/11/03 08:12:40;;;;;;;31.23;12.77;;;;;;;;;;5042313;28;20560;-85
2022/11/03 08:15:11;;;;;;;31.95;14.60;;;;;;;;;;5042561;28;20386;-85
2022/11/03 08:17:41;;;;;;;37.67;15.30;;;;;;;;;;5042212;28;20050;-85
2022/11/03 08:20:09;;;;;;;42.75;16.13;;;;;;;;;;5026251;28;20088;-85
2022/11/03 08:22:38;;;;;;;45.80;17.40;;;;;;;;;;5041335;28;20100;-85
2022/11/03 08:25:28;;;;;;;50.53;19.58;;;;;;;;;;5042109;28;20081;-86
2022/11/03 08:27:56;;;;;;;48.53;21.38;;;;;;;;;;5042027;28;20046;-85
2022/11/03 08:30:24;;;;;;;54.20;19.27;;;;;;;;;;5042519;28;20049;-85
2022/11/03 08:32:53;;;;;;;53.55;21.35;;;;;;;;;;5026601;28;20049;-85
2022/11/03 08:35:21;;;;;;;52.58;19.60;;;;;;;;;;5041529;28;20095;-85
2022/11/03 08:37:52;;;;;;;49.22;20.10;;;;;;;;;;5040626;28;20049;-85
2022/11/03 08:40:20;;;;;;;34.70;17.50;;;;;;;;;;5040125;28;20080;-86
2022/11/03 08:42:49;;;;;;;42.25;15.88;;;;;;;;;;5040016;28;20152;-85
2022/11/03 08:45:18;;;;;;;43.03;13.93;;;;;;;;;;5039843;28;20140;-85
2022/11/03 08:47:45;;;;;;;45.15;12.70;;;;;;;;;;5040023;28;20077;-85
2022/11/03 08:50:13;;;;;;;47.53;11.30;;;;;;;;;;5042713;28;20080;-85
2022/11/03 08:52:40;;;;;;;29.00;7.78;;;;;;;;;;5041645;28;20132;-86
2022/11/03 08:55:08;;;;;;;31.15;5.95;;;;;;;;;;5042001;28;20069;-86
2022/11/03 08:57:36;;;;;;;24.00;5.35;;;;;;;;;;5041534;28;20049;-85
2022/11/03 09:00:05;;;;;;;16.75;3.75;;;;;;;;;;5041366;28;20076;-86
2022/11/03 09:02:34;;;;;;;13.10;3.35;;;;;;;;;;5041879;28;20396;-86
2022/11/03 09:05:02;;;;;;;12.65;3.20;;;;;;;;;;5026163;28;20049;-86
2022/11/03 09:07:29;;;;;;;15.40;2.85;;;;;;;;;;5042268;28;20054;-86
2022/11/03 09:10:17;;;;;;;21.38;2.78;;;;;;;;;;5042055;28;20045;-85
2022/11/03 09:12:48;;;;;;;14.57;3.03;;;;;;;;;;5042042;28;20053;-86
2022/11/03 09:15:17;;;;;;;57.45;4.25;;;;;;;;;;5041268;28;20058;-86
2022/11/03 09:17:44;;;;;;;23.58;4.95;;;;;;;;;;5041892;28;20050;-86
2022/11/03 09:20:12;;;;;;;25.75;5.97;;;;;;;;;;5042976;28;20058;-86
2022/11/03 09:22:41;;;;;;;19.48;2.78;;;;;;;;;;5041708;28;20080;-86
2022/11/03 09:25:09;;;;;;;14.23;2.58;;;;;;;;;;5042460;28;20051;-86
2022/11/03 09:27:36;;;;;;;13.93;2.70;;;;;;;;;;5041920;28;20046;-86
2022/11/03 09:30:05;;;;;;;10.43;2.50;;;;;;;;;;5042138;28;20049;-86
2022/11/03 09:32:41;;;;;;;16.35;2.58;;;;;;;;;;5042392;28;20049;-85
2022/11/03 09:35:11;;;;;;;12.18;2.60;;;;;;;;;;5045479;28;20053;-86
2022/11/03 09:37:39;;;;;;;9.25;2.55;;;;;;;;;;5045913;28;20107;-86
2022/11/03 09:40:08;;;;;;;5.65;2.42;;;;;;;;;;5030323;28;20061;-86
2022/11/03 09:42:38;;;;;;;7.60;2.25;;;;;;;;;;5046527;28;20053;-86
2022/11/03 09:45:07;;;;;;;7.75;2.92;;;;;;;;;;5045463;28;20120;-86
2022/11/03 09:47:36;;;;;;;28.73;3.67;;;;;;;;;;5046045;28;20065;-86
2022/11/03 09:50:04;;;;;;;11.05;2.80;;;;;;;;;;5048266;28;20054;-86
2022/11/03 09:52:36;;;;;;;8.75;2.35;;;;;;;;;;5046308;28;20121;-85
2022/11/03 09:55:12;;;;;;;10.93;2.80;;;;;;;;;;5046590;28;20057;-86
2022/11/03 09:57:42;;;;;;;12.18;2.20;;;;;;;;;;5046340;28;20127;-86
2022/11/03 10:00:19;;;;;;;9.38;2.70;;;;;;;;;;5045243;28;20053;-85
2022/11/03 10:02:50;;;;;;;13.25;2.60;;;;;;;;;;5045080;28;20045;-85
2022/11/03 10:05:23;;;;;;;11.02;2.10;;;;;;;;;;5044644;28;20045;-85
2022/11/03 10:07:57;;;;;;;5.38;1.63;;;;;;;;;;5044712;28;20051;-85
2022/11/03 10:10:25;;;;;;;9.90;1.90;;;;;;;;;;5045003;28;20049;-86
2022/11/03 10:12:54;;;;;;;12.05;2.20;;;;;;;;;;5044131;28;20068;-85
2022/11/03 10:15:22;;;;;;;3.85;1.05;;;;;;;;;;5044493;28;20088;-84
2022/11/03 10:17:51;;;;;;;3.80;1.23;;;;;;;;;;5044365;28;20053;-84
2022/11/03 10:20:20;;;;;;;5.10;0.73;;;;;;;;;;5044808;28;20436;-85
2022/11/03 10:22:53;;;;;;;2.33;0.90;;;;;;;;;;5044904;28;20053;-85
2022/11/03 10:25:35;;;;;;;2.20;0.93;;;;;;;;;;5044056;28;20072;-84
2022/11/03 10:28:14;;;;;;;2.13;0.90;;;;;;;;;;5045642;28;20069;-85
2022/11/03 10:30:48;;;;;;;5.00;1.08;;;;;;;;;;5044231;28;20077;-84
2022/11/03 10:33:37;;;;;;;1.77;0.93;;;;;;;;;;5044790;28;20124;-84
2022/11/03 10:36:05;;;;;;;2.95;1.10;;;;;;;;;;5043578;28;20056;-86
2022/11/03 10:38:35;;;;;;;3.33;1.02;;;;;;;;;;5043695;28;20053;-85
2022/11/03 10:41:13;;;;;;;3.83;1.00;;;;;;;;;;5043399;28;20136;-85
2022/11/03 10:43:41;;;;;;;2.80;0.98;;;;;;;;;;5044033;28;20423;-85
2022/11/03 10:46:10;;;;;;;2.22;0.90;;;;;;;;;;5042137;28;20057;-84
2022/11/03 10:49:12;;;;;;;4.97;0.95;;;;;;;;;;5046199;28;20053;-85
2022/11/03 10:51:41;;;;;;;2.42;1.20;;;;;;;;;;5044871;28;20144;-85
2022/11/03 10:54:13;;;;;;;2.33;0.80;;;;;;;;;;5043677;28;20073;-85
2022/11/03 10:56:41;;;;;;;1.95;0.93;;;;;;;;;;5044416;28;20072;-83
2022/11/03 10:59:15;;;;;;;1.65;0.80;;;;;;;;;;5043844;28;20113;-83
2022/11/03 11:01:42;;;;;;;1.60;0.73;;;;;;;;;;5043793;28;20572;-84
2022/11/03 11:04:20;;;;;;;5.28;0.82;;;;;;;;;;5043471;28;20042;-84
2022/11/03 11:06:49;;;;;;;8.45;1.88;;;;;;;;;;5043640;28;20156;-84
2022/11/03 11:09:24;;;;;;;3.20;0.98;;;;;;;;;;5044602;28;20076;-84
2022/11/03 11:12:06;;;;;;;1.73;0.80;;;;;;;;;;5043994;28;20077;-84
2022/11/03 11:14:37;;;;;;;4.20;0.98;;;;;;;;;;5060824;23;20064;-83
2022/11/03 11:17:05;;;;;;;5.15;1.48;;;;;;;;;;5038977;28;20052;-84
2022/11/03 11:19:52;;;;;;;3.45;1.13;;;;;;;;;;5038529;28;20055;-83
2022/11/03 11:22:22;;;;;;;2.75;0.90;;;;;;;;;;5039895;28;20072;-83
2022/11/03 11:24:49;;;;;;;3.83;1.00;;;;;;;;;;5038678;28;20049;-83
2022/11/03 11:27:46;;;;;;;4.68;1.65;;;;;;;;;;5039952;28;20140;-83
2022/11/03 11:30:19;;;;;;;5.07;1.20;;;;;;;;;;5054599;28;20113;-82
2022/11/03 11:32:47;;;;;;;3.05;1.13;;;;;;;;;;5035949;28;20483;-82
2022/11/03 11:35:26;;;;;;;4.18;1.00;;;;;;;;;;5035572;28;20052;-82
2022/11/03 11:37:53;;;;;;;6.45;1.00;;;;;;;;;;5053332;28;20108;-84
2022/11/03 11:40:24;;;;;;;4.72;0.80;;;;;;;;;;5053133;28;20045;-83
2022/11/03 11:43:03;;;;;;;2.42;0.88;;;;;;;;;;5055786;28;20092;-81
2022/11/03 11:45:50;;;;;;;3.25;0.90;;;;;;;;;;5059928;28;20045;-82
2022/11/03 11:48:17;;;;;;;2.65;0.90;;;;;;;;;;5055700;28;20040;-82
2022/11/03 11:50:45;;;;;;;3.25;1.10;;;;;;;;;;5040008;28;20045;-83
2022/11/03 11:53:13;;;;;;;6.35;1.10;;;;;;;;;;5040999;28;20052;-83
2022/11/03 11:55:46;;;;;;;3.00;0.95;;;;;;;;;;5057173;28;20059;-83
2022/11/03 11:58:16;;;;;;;3.83;0.93;;;;;;;;;;5039758;28;20052;-83
2022/11/03 12:00:54;;;;;;;4.97;1.27;;;;;;;;;;5042035;28;20067;-81
2022/11/03 12:03:24;;;;;;;2.88;0.90;;;;;;;;;;5040170;28;20140;-82
2022/11/03 12:05:52;;;;;;;2.40;0.77;;;;;;;;;;5057997;28;20076;-83
2022/11/03 12:08:20;;;;;;;6.22;1.15;;;;;;;;;;5057173;28;20055;-82
2022/11/03 12:10:54;;;;;;;3.50;1.40;;;;;;;;;;5057215;28;20048;-83
2022/11/03 12:13:36;;;;;;;4.05;1.52;;;;;;;;;;5039123;28;20055;-83
2022/11/03 12:16:03;;;;;;;7.88;1.75;;;;;;;;;;5040106;28;20403;-83
2022/11/03 12:18:40;;;;;;;6.00;1.48;;;;;;;;;;5057899;28;20052;-84
2022/11/03 12:21:35;;;;;;;6.50;1.63;;;;;;;;;;5042373;28;20045;-82
2022/11/03 12:24:22;;;;;;;4.47;1.40;;;;;;;;;;5040674;28;20392;-84
2022/11/03 12:26:49;;;;;;;3.90;1.65;;;;;;;;;;5058604;28;20045;-83
2022/11/03 12:29:16;;;;;;;3.22;1.70;;;;;;;;;;5041395;28;20054;-83
2022/11/03 12:31:43;;;;;;;3.58;2.20;;;;;;;;;;5040569;28;20124;-83
2022/11/03 12:34:11;;;;;;;3.35;1.15;;;;;;;;;;5040667;28;20045;-83
2022/11/03 12:36:38;;;;;;;1.52;0.90;;;;;;;;;;5042090;28;20064;-84
2022/11/03 12:39:05;;;;;;;3.70;1.52;;;;;;;;;;5040812;28;20060;-81
2022/11/03 12:41:32;;;;;;;5.10;1.13;;;;;;;;;;5041337;28;20104;-83
2022/11/03 12:44:00;;;;;;;3.58;1.10;;;;;;;;;;5059253;28;20104;-83
2022/11/03 12:46:27;;;;;;;3.42;1.17;;;;;;;;;;5042540;28;20060;-82
2022/11/03 12:48:54;;;;;;;6.90;1.48;;;;;;;;;;5041056;28;20055;-83
2022/11/03 12:51:23;;;;;;;5.28;1.05;;;;;;;;;;5043448;28;20040;-83
2022/11/03 12:53:50;;;;;;;5.03;1.20;;;;;;;;;;5043711;28;20053;-82
2022/11/03 12:56:18;;;;;;;2.45;1.05;;;;;;;;;;5045935;28;20055;-83
2022/11/03 12:58:45;;;;;;;6.22;1.20;;;;;;;;;;5045739;28;20076;-83
2022/11/03 13:01:13;;;;;;;5.70;1.50;;;;;;;;;;5040573;28;20053;-81
2022/11/03 13:03:41;;;;;;;2.55;0.77;;;;;;;;;;5053291;28;20049;-82
2022/11/03 13:06:13;;;;;;;2.72;1.40;;;;;;;;;;5035669;28;20049;-81
2022/11/03 13:08:40;;;;;;;3.45;1.40;;;;;;;;;;5036634;28;20045;-82
2022/11/03 13:12:30;;;;;;;13.80;2.97;;;;;;;;;;5040196;28;20053;-81
2022/11/03 13:13:55;;;;;;;10.50;1.45;;;;;;;;;;5058537;28;20092;-80
2022/11/03 13:16:22;;;;;;;7.60;1.55;;;;;;;;;;5038721;28;20053;-81
2022/11/03 13:18:50;;;;;;;3.78;1.45;;;;;;;;;;5038415;28;20554;-81
2022/11/03 13:21:17;;;;;;;3.50;1.58;;;;;;;;;;5038305;28;20049;-82
2022/11/03 13:23:44;;;;;;;4.05;1.10;;;;;;;;;;5057016;28;20051;-84
2022/11/03 13:26:12;;;;;;;2.08;0.95;;;;;;;;;;5040210;28;20488;-82
2022/11/03 13:28:39;;;;;;;3.05;1.17;;;;;;;;;;5057331;28;20647;-82
2022/11/03 13:31:06;;;;;;;4.45;1.23;;;;;;;;;;5056391;28;20053;-82
2022/11/03 13:33:33;;;;;;;2.58;1.20;;;;;;;;;;5038599;28;20053;-82
2022/11/03 13:36:00;;;;;;;2.20;1.30;;;;;;;;;;5038884;28;20045;-82
2022/11/03 13:38:28;;;;;;;5.88;1.58;;;;;;;;;;5056480;28;20068;-81
2022/11/03 13:40:55;;;;;;;2.30;1.20;;;;;;;;;;5039633;28;20051;-83
2022/11/03 13:43:29;;;;;;;3.58;1.45;;;;;;;;;;5041341;28;20414;-84
2022/11/03 13:46:01;;;;;;;2.45;1.30;;;;;;;;;;5043841;28;20480;-83
2022/11/03 13:48:28;;;;;;;1.55;1.05;;;;;;;;;;5047642;28;20071;-81
2022/11/03 13:51:17;;;;;;;2.15;1.20;;;;;;;;;;5046300;28;20041;-84
2022/11/03 13:53:44;;;;;;;3.90;1.65;;;;;;;;;;5040361;28;20144;-83
2022/11/03 13:56:31;;;;;;;2.25;1.25;;;;;;;;;;5045953;28;20495;-83
2022/11/03 13:59:19;;;;;;;5.47;1.92;;;;;;;;;;5044690;28;20091;-83
2022/11/03 14:01:49;;;;;;;10.75;2.30;;;;;;;;;;5042616;28;20071;-83
2022/11/03 14:04:37;;;;;;;7.47;2.00;;;;;;;;;;5042708;28;20053;-83
2022/11/03 14:07:06;;;;;;;1.67;1.20;;;;;;;;;;5041530;28;20131;-83
2022/11/03 14:09:33;;;;;;;3.33;1.40;;;;;;;;;;5059434;28;20044;-83
2022/11/03 14:14:46;;;;;;;5.30;1.75;;;;;;;;;;5058650;28;20064;-83
2022/11/03 14:17:13;;;;;;;3.40;1.50;;;;;;;;;;5041353;28;20053;-83
2022/11/03 14:19:41;;;;;;;2.85;1.27;;;;;;;;;;5040459;28;20045;-83
2022/11/03 14:22:14;;;;;;;4.82;1.38;;;;;;;;;;5039331;28;20133;-83
2022/11/03 14:24:42;;;;;;;4.43;1.30;;;;;;;;;;5040278;28;20041;-83
2022/11/03 14:27:09;;;;;;;4.10;1.27;;;;;;;;;;5057732;28;20052;-83
2022/11/03 14:29:36;;;;;;;3.13;1.45;;;;;;;;;;5039765;28;20049;-83
2022/11/03 14:32:04;;;;;;;1.95;1.23;;;;;;;;;;5040336;28;20075;-82
2022/11/03 14:34:31;;;;;;;3.50;1.40;;;;;;;;;;5056607;28;20055;-82
2022/11/03 14:36:58;;;;;;;3.78;1.35;;;;;;;;;;5039163;28;20112;-83
2022/11/03 14:39:26;;;;;;;4.35;1.58;;;;;;;;;;5038492;28;20049;-82
2022/11/03 14:42:02;;;;;;;3.58;1.42;;;;;;;;;;5056267;28;20045;-81
2022/11/03 14:44:33;;;;;;;3.97;1.25;;;;;;;;;;5055695;28;20611;-82
2022/11/03 14:47:00;;;;;;;3.03;1.55;;;;;;;;;;5039237;28;20045;-82
2022/11/03 14:49:28;;;;;;;3.90;1.73;;;;;;;;;;5038304;28;20123;-81
2022/11/03 14:51:56;;;;;;;3.72;1.42;;;;;;;;;;5054537;28;20411;-82
2022/11/03 14:54:23;;;;;;;5.78;1.70;;;;;;;;;;5036384;28;20060;-81
2022/11/03 14:56:51;;;;;;;6.03;1.63;;;;;;;;;;5036678;28;20056;-81
2022/11/03 14:59:18;;;;;;;5.20;1.95;;;;;;;;;;5036523;28;20422;-81
2022/11/03 15:01:46;;;;;;;9.88;2.22;;;;;;;;;;5037046;28;20051;-82
2022/11/03 15:04:13;;;;;;;10.93;2.38;;;;;;;;;;5017518;28;20051;-82
2022/11/03 15:06:41;;;;;;;7.35;2.50;;;;;;;;;;5017801;28;20045;-82
2022/11/03 15:09:09;;;;;;;11.10;2.72;;;;;;;;;;5016810;28;20060;-82
2022/11/03 15:11:36;;;;;;;151.43;86.55;;;;;;;;;;5035280;28;20500;-83
2022/11/03 15:14:04;;;;;;;15.13;8.10;;;;;;;;;;5035073;28;20056;-83
2022/11/03 15:16:33;;;;;;;73.10;38.17;;;;;;;;;;5017470;28;20053;-82